Time;durP1;ratioP1;P1;durP2;ratioP2;P2;SDS_P1;SDS_P2;PMS_P1;PMS_P2;Temp;Humidity;BMP_temperature;BMP_pressure;BME280_temperature;BME280_humidity;BME280_pressure;Samples;Min_cycle;Max_cycle;Signal;HPM_P1;HPM_P2
2023/05/09 00:02:00;;;;;;;8.70;7.28;;;;;;;17.23;46.68;101387.06;5044128;28;20037;-70
2023/05/09 00:04:29;;;;;;;8.77;7.13;;;;;;;17.21;46.14;101384.44;5041182;28;20033;-70
2023/05/09 00:06:57;;;;;;;8.23;7.10;;;;;;;17.21;46.70;101375.28;5058524;28;20143;-69
2023/05/09 00:09:25;;;;;;;8.18;6.70;;;;;;;17.21;46.72;101375.28;5047816;28;20029;-71
2023/05/09 00:11:53;;;;;;;8.65;7.38;;;;;;;17.18;46.22;101372.84;5047634;28;20135;-71
2023/05/09 00:14:21;;;;;;;9.43;7.93;;;;;;;17.16;46.25;101370.22;5042226;28;20041;-70
2023/05/09 00:16:49;;;;;;;9.30;8.02;;;;;;;17.15;46.46;101365.75;5056224;28;20135;-70
2023/05/09 00:19:18;;;;;;;10.15;7.38;;;;;;;17.17;46.40;101368.31;5049514;28;20151;-69
2023/05/09 00:21:46;;;;;;;9.10;7.55;;;;;;;17.13;46.76;101364.19;5039947;28;20094;-70
2023/05/09 00:24:14;;;;;;;9.40;7.53;;;;;;;17.13;46.89;101362.28;5044847;28;20083;-69
2023/05/09 00:26:42;;;;;;;10.02;7.82;;;;;;;17.12;46.62;101359.66;5042778;28;20136;-71
2023/05/09 00:29:10;;;;;;;9.95;7.60;;;;;;;17.11;46.76;101357.94;5043680;28;20120;-71
2023/05/09 00:31:38;;;;;;;9.75;7.30;;;;;;;17.11;46.83;101360.69;5053892;28;20148;-69
2023/05/09 00:34:06;;;;;;;9.70;7.72;;;;;;;17.10;46.89;101358.97;5048875;28;20033;-69
2023/05/09 00:36:35;;;;;;;10.45;8.20;;;;;;;17.13;46.84;101358.66;5059722;28;20415;-71
2023/05/09 00:39:04;;;;;;;9.10;7.55;;;;;;;17.10;46.42;101346.00;5043496;28;20085;-71
2023/05/09 00:41:32;;;;;;;9.13;7.82;;;;;;;17.09;47.04;101341.50;5050303;28;20080;-70
2023/05/09 00:44:00;;;;;;;8.85;7.57;;;;;;;17.10;46.72;101346.00;5043456;28;20045;-71
2023/05/09 00:46:28;;;;;;;9.90;8.10;;;;;;;17.10;47.09;101334.94;5037505;28;20111;-70
2023/05/09 00:48:56;;;;;;;9.45;7.22;;;;;;;17.11;46.85;101333.03;5035143;28;20036;-69
2023/05/09 00:51:25;;;;;;;9.35;8.02;;;;;;;17.11;46.57;101339.44;5054211;28;20037;-70
2023/05/09 00:53:54;;;;;;;10.68;8.05;;;;;;;17.13;46.68;101329.09;5058938;28;20049;-71
2023/05/09 00:56:22;;;;;;;10.20;7.88;;;;;;;17.11;46.76;101314.56;5046645;28;20049;-70
2023/05/09 00:58:50;;;;;;;10.40;8.02;;;;;;;17.11;46.57;101316.44;5056238;28;20052;-70
2023/05/09 01:01:18;;;;;;;9.60;7.22;;;;;;;17.10;47.20;101318.34;5043154;28;20060;-71
2023/05/09 01:03:47;;;;;;;10.30;8.50;;;;;;;17.11;46.88;101311.78;5046721;28;20051;-70
2023/05/09 01:06:22;;;;;;;9.18;7.55;;;;;;;17.14;47.15;101314.22;5043179;28;20056;-69
2023/05/09 01:08:59;;;;;;;10.20;8.13;;;;;;;17.14;47.02;101316.13;5065830;28;20053;-69
2023/05/09 01:11:32;;;;;;;9.57;8.00;;;;;;;17.14;47.12;101310.59;5038102;28;20413;-71
2023/05/09 01:17:49;;;;;;;10.60;7.95;;;;;;;17.09;47.35;101304.69;4995002;28;20047;-70
2023/05/09 01:20:26;;;;;;;10.00;7.53;;;;;;;17.10;47.41;101300.88;4998124;28;20496;-70
2023/05/09 01:23:10;;;;;;;10.80;8.05;;;;;;;17.10;46.73;101301.75;4987035;28;20414;-69
2023/05/09 01:26:03;;;;;;;9.48;8.02;;;;;;;17.08;47.59;101291.88;4986877;28;20062;-69
2023/05/09 01:28:45;;;;;;;10.18;8.32;;;;;;;17.10;47.30;101298.13;4967621;28;20058;-70
2023/05/09 01:31:16;;;;;;;9.82;8.10;;;;;;;17.10;46.82;101300.88;4978369;28;20051;-69
2023/05/09 01:33:48;;;;;;;9.73;7.93;;;;;;;17.10;47.35;101293.47;5020549;28;20040;-70
2023/05/09 01:36:19;;;;;;;10.02;8.43;;;;;;;17.09;47.33;101290.84;5029664;28;20046;-70
2023/05/09 01:38:50;;;;;;;10.13;7.65;;;;;;;17.10;47.33;101290.69;5000203;28;20417;-70
2023/05/09 01:41:19;;;;;;;9.90;8.02;;;;;;;17.10;47.13;101289.81;4956132;28;20058;-70
2023/05/09 01:43:50;;;;;;;10.38;7.82;;;;;;;17.12;46.93;101296.94;4976328;28;20061;-70
2023/05/09 01:46:22;;;;;;;10.35;8.20;;;;;;;17.14;47.53;101296.78;4970540;28;20047;-70
2023/05/09 01:48:52;;;;;;;9.47;8.13;;;;;;;17.11;47.21;101288.78;5053243;28;20052;-70
2023/05/09 01:51:21;;;;;;;10.18;8.25;;;;;;;17.14;47.11;101286.56;4993216;28;20051;-70
2023/05/09 01:53:51;;;;;;;11.82;8.20;;;;;;;17.14;47.36;101294.88;5004553;28;20056;-70
2023/05/09 01:56:20;;;;;;;10.45;8.68;;;;;;;17.15;47.43;101292.97;4977815;28;20062;-70
2023/05/09 01:58:50;;;;;;;10.77;8.35;;;;;;;17.17;47.53;101293.66;5018895;28;20055;-70
2023/05/09 02:01:20;;;;;;;9.85;8.10;;;;;;;17.17;47.44;101280.69;4993100;28;20412;-70
2023/05/09 02:03:52;;;;;;;10.60;8.15;;;;;;;17.18;47.17;101293.50;4998418;28;20140;-70
2023/05/09 02:06:23;;;;;;;11.18;8.52;;;;;;;17.17;47.50;101285.34;4998305;28;20463;-70
2023/05/09 02:08:51;;;;;;;9.30;7.60;;;;;;;17.17;47.46;101285.34;5023725;28;20064;-69
2023/05/09 02:11:20;;;;;;;11.00;8.52;;;;;;;17.17;47.35;101289.00;5018411;28;20054;-70
2023/05/09 02:13:49;;;;;;;11.32;9.02;;;;;;;17.18;47.50;101287.09;4992741;28;20319;-70
2023/05/09 02:16:17;;;;;;;11.27;8.95;;;;;;;17.18;47.53;101282.44;4984071;28;20058;-70
2023/05/09 02:18:48;;;;;;;11.15;8.93;;;;;;;17.20;46.95;101280.38;5056361;28;20060;-70
2023/05/09 02:21:17;;;;;;;11.68;9.45;;;;;;;17.18;47.22;101282.44;4994795;28;20068;-69
2023/05/09 02:23:45;;;;;;;11.38;8.60;;;;;;;17.18;46.98;101276.91;5016147;28;20040;-70
2023/05/09 02:26:14;;;;;;;11.23;8.52;;;;;;;17.19;47.24;101275.00;4993660;28;20048;-69
2023/05/09 02:28:44;;;;;;;9.68;8.00;;;;;;;17.20;47.31;101273.97;5027095;28;20133;-70
2023/05/09 02:31:14;;;;;;;11.30;8.48;;;;;;;17.20;47.16;101277.59;4970673;28;20061;-70
2023/05/09 02:33:43;;;;;;;9.98;8.18;;;;;;;17.20;47.66;101276.72;5010294;28;20051;-69
2023/05/09 02:36:14;;;;;;;11.48;8.77;;;;;;;17.21;47.66;101279.34;4970733;28;20532;-70
2023/05/09 02:38:44;;;;;;;12.40;9.45;;;;;;;17.20;47.63;101288.66;4969926;28;20096;-70
2023/05/09 02:41:13;;;;;;;11.25;8.45;;;;;;;17.21;47.46;101282.09;4989332;28;20050;-70
2023/05/09 02:43:41;;;;;;;12.05;8.68;;;;;;;17.20;47.58;101272.06;5005289;28;20132;-70
2023/05/09 02:46:10;;;;;;;12.60;9.70;;;;;;;17.20;47.72;101273.97;5011982;28;20062;-69
2023/05/09 02:48:38;;;;;;;13.63;9.88;;;;;;;17.20;47.27;101273.97;5007305;28;20572;-70
2023/05/09 02:51:05;;;;;;;13.18;9.77;;;;;;;17.20;47.30;101269.31;4995717;28;20039;-69
2023/05/09 02:53:35;;;;;;;12.88;9.38;;;;;;;17.22;47.84;101267.25;5020525;28;20452;-70
2023/05/09 02:56:03;;;;;;;14.65;10.20;;;;;;;17.21;47.38;101267.41;5026372;28;20053;-70
2023/05/09 02:58:31;;;;;;;13.82;10.80;;;;;;;17.21;47.46;101265.50;4993428;28;20066;-70
2023/05/09 03:00:59;;;;;;;14.48;10.35;;;;;;;17.22;47.88;101263.59;4991587;28;20049;-70
2023/05/09 03:03:27;;;;;;;13.07;9.68;;;;;;;17.21;48.07;101262.75;5034946;28;20051;-70
2023/05/09 03:05:55;;;;;;;16.08;10.77;;;;;;;17.22;47.47;101255.31;5029966;22;20043;-72
2023/05/09 03:08:23;;;;;;;15.18;10.45;;;;;;;17.21;47.90;101251.69;5037864;28;20045;-71
2023/05/09 03:10:52;;;;;;;16.33;10.45;;;;;;;17.23;47.52;101257.91;5024832;28;20033;-70
2023/05/09 03:13:21;;;;;;;15.38;10.65;;;;;;;17.21;47.54;101265.50;5025679;28;20410;-71
2023/05/09 03:15:49;;;;;;;13.85;9.77;;;;;;;17.22;47.53;101258.06;5030626;28;20056;-71
2023/05/09 03:18:17;;;;;;;14.73;10.02;;;;;;;17.21;47.67;101254.44;5050780;28;20094;-70
2023/05/09 03:20:45;;;;;;;15.18;10.55;;;;;;;17.21;48.08;101257.22;5032500;28;20103;-70
2023/05/09 03:23:13;;;;;;;18.23;12.02;;;;;;;17.22;47.66;101252.53;5030862;28;20445;-70
2023/05/09 03:25:41;;;;;;;18.92;12.15;;;;;;;17.22;48.22;101253.41;5030700;28;20570;-71
2023/05/09 03:28:10;;;;;;;16.52;11.80;;;;;;;17.24;48.14;101256.84;5048817;28;20052;-71
2023/05/09 03:30:39;;;;;;;17.10;12.25;;;;;;;17.22;47.77;101261.72;5032518;28;20098;-71
2023/05/09 03:33:10;;;;;;;17.10;11.00;;;;;;;17.21;48.18;101256.34;5029973;28;20124;-70
2023/05/09 03:35:38;;;;;;;16.77;10.88;;;;;;;17.23;48.09;101257.91;5045648;28;20515;-71
2023/05/09 03:38:07;;;;;;;17.02;11.43;;;;;;;17.24;47.80;101254.09;5030979;28;20518;-71
2023/05/09 03:40:34;;;;;;;16.73;11.35;;;;;;;17.24;47.83;101248.56;5049588;28;20048;-71
2023/05/09 03:43:07;;;;;;;15.00;10.27;;;;;;;17.23;47.90;101248.75;5034084;28;20050;-71
2023/05/09 03:45:38;;;;;;;16.10;11.23;;;;;;;17.26;48.33;101243.72;5027828;28;20508;-71
2023/05/09 03:48:08;;;;;;;16.27;11.48;;;;;;;17.24;47.81;101239.38;5030530;28;20046;-71
2023/05/09 03:50:40;;;;;;;17.73;11.90;;;;;;;17.23;47.87;101245.97;5039119;28;20044;-71
2023/05/09 03:53:08;;;;;;;17.20;11.80;;;;;;;17.24;47.74;101229.19;5031686;28;20199;-71
2023/05/09 03:55:38;;;;;;;17.42;11.70;;;;;;;17.24;47.90;101240.25;5028922;28;20045;-70
2023/05/09 03:58:06;;;;;;;14.75;10.85;;;;;;;17.24;47.54;101222.78;5048453;28;20071;-71
2023/05/09 04:00:38;;;;;;;15.90;11.40;;;;;;;17.24;47.62;101226.44;5024254;28;20390;-71
2023/05/09 04:03:12;;;;;;;15.95;10.93;;;;;;;17.22;47.92;101222.97;5030321;28;20041;-71
2023/05/09 04:05:44;;;;;;;;;;;;;;;16.93;48.92;101222.50;5032084;28;20578;-71
2023/05/09 04:08:21;;;;;;;14.70;9.98;;;;;;;17.18;47.81;101223.47;5055144;28;20445;-71
2023/05/09 04:10:49;;;;;;;15.30;10.68;;;;;;;17.21;48.16;101215.72;5027298;28;20091;-71
2023/05/09 04:13:18;;;;;;;17.73;11.70;;;;;;;17.22;47.76;101219.34;5028687;28;20456;-71
2023/05/09 04:15:47;;;;;;;15.85;11.85;;;;;;;17.22;47.87;101211.91;5045904;28;20052;-71
2023/05/09 04:18:15;;;;;;;17.00;11.30;;;;;;;17.21;48.22;101212.09;5027975;28;20045;-71
2023/05/09 04:20:44;;;;;;;18.02;11.00;;;;;;;17.19;47.90;101198.41;5029584;28;20041;-71
2023/05/09 04:23:12;;;;;;;18.90;12.30;;;;;;;17.20;47.88;101200.16;5044703;28;20029;-71
2023/05/09 04:25:41;;;;;;;18.60;11.80;;;;;;;17.18;47.96;101199.44;5027125;28;20512;-71
2023/05/09 04:28:09;;;;;;;16.00;11.50;;;;;;;17.16;47.64;101195.97;5047535;28;20056;-71
2023/05/09 04:30:37;;;;;;;16.85;11.35;;;;;;;17.14;48.06;101187.00;5029875;28;20057;-71
2023/05/09 04:33:06;;;;;;;16.65;11.68;;;;;;;17.14;47.59;101187.00;5046770;28;20411;-71
2023/05/09 04:35:34;;;;;;;16.00;10.98;;;;;;;17.10;47.63;101190.25;5027853;28;20037;-71
2023/05/09 04:38:03;;;;;;;14.52;10.90;;;;;;;17.09;47.79;101189.41;5029270;28;20044;-71
2023/05/09 04:40:32;;;;;;;14.65;9.95;;;;;;;17.08;47.99;101182.13;5028315;28;20518;-70
2023/05/09 04:43:00;;;;;;;15.57;10.95;;;;;;;17.08;47.93;101193.19;5032097;28;20099;-71
2023/05/09 04:45:30;;;;;;;14.13;10.50;;;;;;;17.07;47.98;101185.97;5025889;28;20048;-70
2023/05/09 04:47:59;;;;;;;12.98;10.52;;;;;;;17.07;47.65;101194.25;5026896;28;20060;-70
2023/05/09 04:50:30;;;;;;;12.68;9.85;;;;;;;17.09;48.27;101196.81;5028172;28;20569;-70
2023/05/09 04:52:58;;;;;;;13.50;10.10;;;;;;;17.07;47.96;101193.38;5046895;28;20053;-70
2023/05/09 04:55:26;;;;;;;13.52;10.52;;;;;;;17.05;48.11;101189.91;5028288;28;20571;-70
2023/05/09 04:57:55;;;;;;;13.73;10.98;;;;;;;17.04;48.08;101189.06;5047091;28;20048;-70
2023/05/09 05:00:23;;;;;;;13.80;10.68;;;;;;;17.03;47.75;101187.31;5041858;28;20064;-71
2023/05/09 05:02:51;;;;;;;12.52;10.88;;;;;;;17.01;47.66;101179.19;5031415;28;20045;-71
2023/05/09 05:05:19;;;;;;;13.35;10.57;;;;;;;17.01;47.93;101187.47;5056168;28;20454;-70
2023/05/09 05:07:54;;;;;;;12.70;10.27;;;;;;;17.01;47.76;101181.09;5027041;28;20045;-70
2023/05/09 05:10:26;;;;;;;12.95;10.70;;;;;;;16.97;47.65;101177.81;5026955;28;20044;-70
2023/05/09 05:13:02;;;;;;;14.48;10.98;;;;;;;16.97;47.73;101175.03;5029143;28;20560;-70
2023/05/09 05:15:30;;;;;;;14.70;10.43;;;;;;;16.97;47.53;101174.19;5041248;28;20049;-70
2023/05/09 05:17:58;;;;;;;13.70;11.18;;;;;;;16.96;47.81;101178.81;5026335;28;20057;-71
2023/05/09 05:20:31;;;;;;;12.65;9.73;;;;;;;16.92;47.68;101163.56;5029436;28;20045;-70
2023/05/09 05:23:00;;;;;;;13.25;9.77;;;;;;;16.95;47.90;101171.53;5047013;28;20041;-70
2023/05/09 05:25:28;;;;;;;13.45;10.63;;;;;;;16.95;48.13;101167.91;5045889;28;20064;-70
2023/05/09 05:27:57;;;;;;;11.93;9.93;;;;;;;16.94;47.63;101158.75;5030309;28;20071;-71
2023/05/09 05:30:26;;;;;;;12.55;10.18;;;;;;;16.95;47.68;101162.38;5029018;28;20143;-71
2023/05/09 05:32:54;;;;;;;12.90;10.07;;;;;;;16.94;47.75;101164.28;5047987;28;20048;-71
2023/05/09 05:35:23;;;;;;;12.70;10.30;;;;;;;16.94;47.75;101155.97;5032958;28;20566;-71
2023/05/09 05:37:52;;;;;;;14.00;10.48;;;;;;;16.95;47.85;101151.31;5044581;28;20131;-70
2023/05/09 05:40:23;;;;;;;14.10;11.07;;;;;;;16.95;47.75;101149.41;5029975;28;20044;-71
2023/05/09 05:42:53;;;;;;;13.40;10.45;;;;;;;16.92;47.86;101140.59;5029939;28;20071;-71
2023/05/09 05:45:21;;;;;;;13.15;10.98;;;;;;;16.91;48.08;101139.72;5028672;28;20049;-71
2023/05/09 05:47:53;;;;;;;14.32;10.45;;;;;;;16.92;47.93;101137.81;5029997;28;20072;-71
2023/05/09 05:50:22;;;;;;;15.25;11.07;;;;;;;16.92;48.20;101138.69;5029052;28;20048;-71
2023/05/09 05:52:50;;;;;;;12.23;9.82;;;;;;;16.94;47.98;101135.75;5047119;28;20504;-71
2023/05/09 05:55:19;;;;;;;13.55;11.27;;;;;;;16.94;48.39;101131.09;5029247;28;20042;-71
2023/05/09 05:57:48;;;;;;;12.35;10.52;;;;;;;16.98;48.53;101132.53;5048725;28;20063;-71
2023/05/09 06:00:17;;;;;;;13.45;10.23;;;;;;;16.99;48.53;101133.38;5035105;28;20045;-71
2023/05/09 06:02:49;;;;;;;13.43;10.75;;;;;;;17.01;48.60;101129.41;5028418;28;20061;-71
2023/05/09 06:05:23;;;;;;;12.77;10.52;;;;;;;17.06;49.08;101120.63;5045262;28;20071;-71
2023/05/09 06:07:52;;;;;;;11.05;9.70;;;;;;;17.13;49.17;101118.03;5033617;28;20099;-71
2023/05/09 06:10:20;;;;;;;12.25;10.32;;;;;;;17.19;48.71;101126.50;5032606;28;20053;-71
2023/05/09 06:12:49;;;;;;;12.43;10.25;;;;;;;17.28;48.65;101114.41;5033803;28;20045;-71
2023/05/09 06:15:17;;;;;;;12.40;10.15;;;;;;;17.33;48.54;101109.22;5032931;28;20071;-71
2023/05/09 06:17:48;;;;;;;12.05;9.85;;;;;;;17.39;48.61;101107.69;5033247;28;20045;-71
2023/05/09 06:20:16;;;;;;;12.35;9.70;;;;;;;17.45;48.45;101106.97;5050996;28;20045;-71
2023/05/09 06:22:44;;;;;;;12.32;10.07;;;;;;;17.51;48.61;101102.66;5033843;28;20037;-71
2023/05/09 06:25:12;;;;;;;11.93;9.23;;;;;;;17.55;48.26;101093.84;5048627;28;20045;-71
2023/05/09 06:27:40;;;;;;;11.73;9.32;;;;;;;17.61;47.91;101097.81;5033219;28;20723;-70
2023/05/09 06:30:11;;;;;;;13.27;10.23;;;;;;;17.67;48.32;101099.88;5032892;28;20051;-69
2023/05/09 06:32:52;;;;;;;11.07;9.05;;;;;;;17.69;48.11;101095.88;5051210;28;20048;-70
2023/05/09 06:35:20;;;;;;;11.07;8.98;;;;;;;17.74;47.92;101084.31;5055851;28;20055;-71
2023/05/09 06:37:49;;;;;;;11.20;8.43;;;;;;;17.78;47.90;101088.47;5044626;28;20047;-69
2023/05/09 06:40:17;;;;;;;10.52;8.75;;;;;;;17.82;47.87;101078.75;5049429;28;20116;-70
2023/05/09 06:42:44;;;;;;;11.45;9.40;;;;;;;17.84;47.64;101076.69;5050749;28;20139;-70
2023/05/09 06:45:14;;;;;;;11.45;9.10;;;;;;;17.89;47.26;101074.28;5049919;28;20080;-70
2023/05/09 06:47:42;;;;;;;10.02;8.88;;;;;;;17.89;47.54;101077.03;5051620;28;20060;-69
2023/05/09 06:50:10;;;;;;;11.85;9.65;;;;;;;17.90;47.56;101075.09;5053999;28;20499;-70
2023/05/09 06:52:38;;;;;;;14.05;9.45;;;;;;;17.92;47.78;101073.03;5053834;28;20411;-69
2023/05/09 06:55:08;;;;;;;11.30;8.50;;;;;;;17.93;47.37;101063.69;5049902;28;20443;-70
2023/05/09 06:57:36;;;;;;;12.85;9.63;;;;;;;17.95;47.22;101064.38;5051073;28;20044;-70
2023/05/09 07:00:10;;;;;;;10.88;8.90;;;;;;;17.99;47.28;101057.44;5045328;28;20049;-70
2023/05/09 07:02:40;;;;;;;11.93;9.32;;;;;;;17.98;47.81;101055.69;5049350;28;20102;-69
2023/05/09 07:05:12;;;;;;;9.60;8.60;;;;;;;18.01;47.36;101056.22;5050653;28;20064;-71
2023/05/09 07:07:40;;;;;;;10.88;8.55;;;;;;;18.02;47.47;101052.41;5050230;28;20634;-71
2023/05/09 07:10:09;;;;;;;11.77;9.05;;;;;;;18.07;47.74;101049.94;5048483;28;20040;-70
2023/05/09 07:12:39;;;;;;;11.20;9.07;;;;;;;18.10;47.92;101045.97;5033256;28;20044;-70
2023/05/09 07:15:09;;;;;;;9.77;8.77;;;;;;;18.19;47.61;101046.81;5049830;28;20041;-70
2023/05/09 07:17:39;;;;;;;10.43;8.75;;;;;;;18.22;47.39;101044.56;5050840;28;20045;-69
2023/05/09 07:20:08;;;;;;;12.45;8.73;;;;;;;18.25;47.70;101043.31;5047913;28;20580;-69
2023/05/09 07:22:36;;;;;;;10.20;8.57;;;;;;;18.28;47.36;101031.88;5051071;28;20041;-69
2023/05/09 07:25:07;;;;;;;10.50;8.18;;;;;;;18.32;47.29;101036.84;5046483;28;20132;-69
2023/05/09 07:27:35;;;;;;;10.07;8.10;;;;;;;18.34;47.48;101029.25;5036932;28;20443;-71
2023/05/09 07:30:03;;;;;;;9.85;8.52;;;;;;;18.37;46.89;101022.47;5049370;28;20072;-72
2023/05/09 07:32:31;;;;;;;9.73;8.23;;;;;;;18.39;47.38;101023.16;5048381;28;20048;-77
2023/05/09 07:35:02;;;;;;;9.25;7.57;;;;;;;18.45;46.81;101025.22;5045488;28;20432;-77
2023/05/09 07:37:31;;;;;;;9.57;7.57;;;;;;;18.47;46.88;101023.13;5036415;28;20668;-76
2023/05/09 07:40:00;;;;;;;10.05;7.97;;;;;;;18.49;47.13;101012.72;5026977;28;20060;-74
2023/05/09 07:42:29;;;;;;;9.63;7.57;;;;;;;18.52;46.71;101018.78;5046950;28;20522;-76
2023/05/09 07:44:57;;;;;;;8.80;7.40;;;;;;;18.55;46.65;101009.25;5043425;28;20063;-75
2023/05/09 07:47:26;;;;;;;9.05;7.47;;;;;;;18.59;46.41;101004.19;5049979;28;20427;-76
2023/05/09 07:49:54;;;;;;;8.70;7.68;;;;;;;18.62;46.49;101012.16;5042605;28;20049;-76
2023/05/09 07:52:23;;;;;;;9.23;7.43;;;;;;;18.66;46.37;101006.03;5031607;28;20043;-77
2023/05/09 07:54:51;;;;;;;8.15;6.80;;;;;;;18.67;46.42;101005.00;5047281;28;20060;-76
2023/05/09 07:57:19;;;;;;;8.73;7.15;;;;;;;18.70;46.45;101001.00;5031294;28;20280;-77
2023/05/09 07:59:47;;;;;;;9.00;7.15;;;;;;;18.74;46.51;101007.88;5041460;28;20049;-77
2023/05/09 08:02:14;;;;;;;8.38;6.55;;;;;;;18.76;46.34;101001.13;5031014;28;20048;-76
2023/05/09 08:04:42;;;;;;;8.27;6.85;;;;;;;18.78;46.37;100990.72;5047673;28;20107;-77
2023/05/09 08:07:10;;;;;;;7.03;6.10;;;;;;;18.81;46.00;100987.53;5045813;28;20041;-77
2023/05/09 08:09:40;;;;;;;7.43;5.60;;;;;;;18.87;45.67;100980.41;5045770;28;20123;-77
2023/05/09 08:12:08;;;;;;;6.53;5.47;;;;;;;18.87;45.69;100970.19;5049325;28;20131;-77
2023/05/09 08:14:36;;;;;;;6.25;5.55;;;;;;;18.91;45.74;100970.66;5048570;28;20029;-77
2023/05/09 08:17:04;;;;;;;6.35;4.93;;;;;;;18.94;45.63;100967.53;5026446;28;20063;-77
2023/05/09 08:19:32;;;;;;;6.70;5.38;;;;;;;18.99;45.96;100958.63;5027188;28;20526;-77
2023/05/09 08:22:00;;;;;;;6.55;5.35;;;;;;;19.04;45.85;100962.59;5044635;28;20044;-78
2023/05/09 08:24:28;;;;;;;5.32;4.78;;;;;;;19.09;45.82;100960.09;5044170;28;20033;-77
2023/05/09 08:26:57;;;;;;;5.65;4.50;;;;;;;19.17;45.40;100950.84;5046990;28;20136;-77
2023/05/09 08:29:25;;;;;;;5.72;4.57;;;;;;;19.21;45.42;100955.84;5027653;28;20561;-77
2023/05/09 08:31:53;;;;;;;4.85;3.80;;;;;;;19.26;44.55;100947.84;5024551;28;20045;-77
2023/05/09 08:34:21;;;;;;;5.03;3.75;;;;;;;19.33;44.71;100950.69;5047269;28;20072;-77
2023/05/09 08:36:49;;;;;;;4.80;3.58;;;;;;;19.40;44.66;100942.47;5046497;28;20040;-71
2023/05/09 08:39:17;;;;;;;4.10;3.28;;;;;;;19.46;44.08;100941.75;5043813;28;20053;-71
2023/05/09 08:41:45;;;;;;;4.13;2.92;;;;;;;19.53;43.92;100942.69;5045515;28;20076;-76
2023/05/09 08:44:14;;;;;;;4.10;2.92;;;;;;;19.61;43.68;100942.59;5037069;28;20510;-71
2023/05/09 08:46:45;;;;;;;4.13;3.05;;;;;;;19.68;43.45;100938.00;5037160;28;20057;-71
2023/05/09 08:49:13;;;;;;;4.57;3.10;;;;;;;19.73;43.50;100935.50;5041901;28;20281;-71
2023/05/09 08:51:41;;;;;;;5.03;3.00;;;;;;;19.78;42.80;100940.47;5040885;28;20274;-65
2023/05/09 08:54:10;;;;;;;4.88;3.05;;;;;;;19.83;43.13;100926.88;5044013;28;20041;-66
2023/05/09 08:56:38;;;;;;;5.00;2.78;;;;;;;19.86;42.30;100926.50;5046461;28;20056;-66
2023/05/09 08:59:06;;;;;;;3.78;2.50;;;;;;;19.90;42.28;100930.59;5042013;28;20048;-67
2023/05/09 09:01:35;;;;;;;3.20;2.45;;;;;;;19.95;42.03;100926.19;5043931;28;20040;-66
2023/05/09 09:04:05;;;;;;;3.80;2.40;;;;;;;20.00;42.04;100914.53;5041727;28;20487;-66
2023/05/09 09:06:34;;;;;;;5.88;2.58;;;;;;;20.02;41.99;100913.28;5062335;22;20368;-66
2023/05/09 09:09:05;;;;;;;3.70;2.60;;;;;;;20.09;41.91;100904.16;5042720;28;20710;-66
2023/05/09 09:11:34;;;;;;;3.40;2.53;;;;;;;20.13;41.92;100908.25;5053640;28;20056;-66
2023/05/09 09:14:09;;;;;;;4.20;2.60;;;;;;;20.21;41.54;100894.22;5052791;28;20029;-66
2023/05/09 09:16:40;;;;;;;3.88;2.80;;;;;;;20.25;41.46;100887.25;5042708;28;20080;-66
2023/05/09 09:19:16;;;;;;;3.63;2.60;;;;;;;20.34;41.12;100883.28;5040888;28;20033;-66
2023/05/09 09:21:46;;;;;;;3.50;2.40;;;;;;;20.40;41.73;100893.59;5043274;28;20466;-67
2023/05/09 09:24:18;;;;;;;3.67;2.50;;;;;;;20.46;41.67;100881.66;5045055;28;20049;-70
2023/05/09 09:26:47;;;;;;;4.20;2.80;;;;;;;20.52;41.67;100880.03;5025674;28;20072;-71
2023/05/09 09:29:17;;;;;;;4.65;2.95;;;;;;;20.59;41.10;100892.13;5050793;28;20037;-72
2023/05/09 09:31:47;;;;;;;4.43;2.72;;;;;;;20.66;40.67;100876.34;5049802;28;20088;-72
2023/05/09 09:34:21;;;;;;;4.90;3.08;;;;;;;20.71;39.84;100879.38;5026194;28;20037;-72
2023/05/09 09:36:51;;;;;;;3.55;2.50;;;;;;;20.72;40.36;100881.09;5044471;28;20058;-72
2023/05/09 09:39:20;;;;;;;3.60;2.20;;;;;;;20.75;40.23;100876.00;5046772;28;20411;-71
2023/05/09 09:41:48;;;;;;;3.83;2.60;;;;;;;20.79;40.12;100859.75;5044046;28;20049;-71
2023/05/09 09:44:19;;;;;;;3.70;2.17;;;;;;;20.82;40.11;100864.06;5047660;28;20123;-71
2023/05/09 09:46:51;;;;;;;4.10;2.20;;;;;;;20.87;39.37;100864.31;5049158;28;20130;-72
2023/05/09 09:49:20;;;;;;;3.63;2.30;;;;;;;20.88;39.72;100858.56;5028492;28;20507;-71
2023/05/09 09:51:52;;;;;;;4.00;2.00;;;;;;;20.92;38.98;100859.88;5046433;28;20052;-72
2023/05/09 09:54:20;;;;;;;3.33;2.10;;;;;;;20.91;39.74;100851.72;5047232;28;20052;-71
2023/05/09 09:56:50;;;;;;;4.22;2.53;;;;;;;20.95;39.66;100845.56;5046671;28;20055;-71
2023/05/09 09:59:20;;;;;;;3.55;2.30;;;;;;;20.99;39.36;100843.22;5029386;28;20241;-72
2023/05/09 10:02:00;;;;;;;3.50;2.33;;;;;;;21.03;38.30;100844.53;5046893;28;20059;-72
2023/05/09 10:04:34;;;;;;;3.22;1.83;;;;;;;21.02;39.48;100840.91;5045101;28;20033;-72
2023/05/09 10:07:04;;;;;;;3.30;2.20;;;;;;;21.06;39.24;100835.78;5047015;28;20040;-71
2023/05/09 10:09:33;;;;;;;3.55;2.13;;;;;;;21.08;39.29;100842.03;5045987;28;20044;-71
2023/05/09 10:12:03;;;;;;;4.68;2.53;;;;;;;21.10;39.01;100837.97;5047003;28;20087;-71
2023/05/09 10:14:32;;;;;;;4.40;2.55;;;;;;;21.11;38.42;100836.03;5027837;28;20076;-71
2023/05/09 10:17:05;;;;;;;4.30;2.40;;;;;;;21.14;38.43;100832.84;5033278;28;20404;-72
2023/05/09 10:19:37;;;;;;;3.58;2.35;;;;;;;21.15;38.29;100829.88;5046019;28;20523;-71
2023/05/09 10:22:08;;;;;;;;;;;;;;;20.85;39.31;100819.16;5047098;28;20045;-72
2023/05/09 10:24:42;;;;;;;2.58;1.95;;;;;;;21.14;38.41;100818.94;5042409;28;19921;-72
2023/05/09 10:27:11;;;;;;;4.13;2.30;;;;;;;21.18;38.80;100819.41;5027841;28;20041;-71
2023/05/09 10:29:50;;;;;;;3.95;2.20;;;;;;;21.20;38.47;100815.31;5028097;28;20057;-71
2023/05/09 10:32:26;;;;;;;3.40;2.25;;;;;;;21.22;37.70;100806.75;5028903;28;20140;-72
2023/05/09 10:35:00;;;;;;;2.92;1.90;;;;;;;21.23;37.78;100808.50;5025287;28;20050;-71
2023/05/09 10:37:28;;;;;;;3.80;2.17;;;;;;;21.22;38.37;100798.41;5029433;28;20136;-71
2023/05/09 10:39:59;;;;;;;3.88;2.22;;;;;;;21.23;38.25;100791.78;5045857;28;20068;-72
2023/05/09 10:42:27;;;;;;;3.17;2.10;;;;;;;21.23;38.05;100794.56;5045187;28;20052;-71
2023/05/09 10:44:56;;;;;;;3.33;2.17;;;;;;;21.24;38.00;100796.28;5044374;28;20059;-71
2023/05/09 10:47:27;;;;;;;3.40;1.90;;;;;;;21.26;37.30;100789.50;5044750;28;20045;-72
2023/05/09 10:49:56;;;;;;;2.92;1.90;;;;;;;21.24;37.68;100787.94;5047517;28;20129;-71
2023/05/09 10:52:24;;;;;;;3.72;2.08;;;;;;;21.24;37.47;100780.47;5049238;28;20064;-71
2023/05/09 10:55:00;;;;;;;3.45;1.80;;;;;;;21.29;36.76;100782.63;5044664;28;20580;-72
2023/05/09 10:57:29;;;;;;;3.35;2.10;;;;;;;21.24;37.60;100772.09;5045468;28;20079;-72
2023/05/09 10:59:59;;;;;;;2.55;1.83;;;;;;;21.26;37.62;100767.22;5049186;28;20104;-72
2023/05/09 11:02:31;;;;;;;3.35;1.85;;;;;;;21.29;37.37;100774.28;5059443;28;20093;-71
2023/05/09 11:05:16;;;;;;;3.17;1.92;;;;;;;21.27;36.67;100762.53;5048320;28;20057;-71
2023/05/09 11:07:44;;;;;;;3.08;2.15;;;;;;;21.27;37.62;100763.38;5046989;28;20053;-72
2023/05/09 11:10:16;;;;;;;3.40;1.90;;;;;;;21.33;36.84;100758.91;5032809;28;20063;-72
2023/05/09 11:12:55;;;;;;;3.60;2.55;;;;;;;21.33;36.61;100748.63;5047644;28;20140;-71
2023/05/09 11:15:26;;;;;;;3.10;1.88;;;;;;;21.34;37.32;100758.69;5048477;28;20399;-72
2023/05/09 11:18:06;;;;;;;3.42;2.00;;;;;;;21.39;36.76;100746.94;5054044;28;20052;-72
2023/05/09 11:20:36;;;;;;;3.45;2.35;;;;;;;21.38;37.10;100743.28;5049055;28;20090;-72
2023/05/09 11:23:04;;;;;;;3.08;2.15;;;;;;;21.43;36.99;100728.75;5028666;28;20045;-72
2023/05/09 11:25:32;;;;;;;3.20;2.20;;;;;;;21.44;36.90;100727.66;5048398;28;20052;-71
2023/05/09 11:28:01;;;;;;;2.85;2.13;;;;;;;21.49;36.96;100722.34;5049982;28;20041;-71
2023/05/09 11:30:39;;;;;;;3.15;2.08;;;;;;;21.55;36.42;100715.06;5043719;28;20526;-72
2023/05/09 11:33:22;;;;;;;3.63;1.85;;;;;;;21.57;36.10;100715.72;5048824;28;20051;-71
2023/05/09 11:36:15;;;;;;;3.00;2.10;;;;;;;21.61;36.22;100711.44;5028631;28;20171;-71